sensor_id;sensor_type;location;lat;lon;timestamp;pressure;altitude;pressure_sealevel;temperature;humidity
49529;BME280;35423;37.320;-121.762;2023-09-12T00:01:41;99737.03;;;48.91;4.65
49529;BME280;35423;37.320;-121.762;2023-09-12T00:04:06;99737.14;;;48.77;4.76
49529;BME280;35423;37.320;-121.762;2023-09-12T00:06:43;99734.14;;;48.94;4.79
49529;BME280;35423;37.320;-121.762;2023-09-12T00:09:03;99736.94;;;49.04;4.77
49529;BME280;35423;37.320;-121.762;2023-09-12T00:11:33;99739.48;;;47.97;4.93
49529;BME280;35423;37.320;-121.762;2023-09-12T00:14:00;99743.34;;;48.08;5.29
49529;BME280;35423;37.320;-121.762;2023-09-12T00:16:26;99747.83;;;47.83;5.50
49529;BME280;35423;37.320;-121.762;2023-09-12T00:18:52;99748.41;;;47.53;5.54
49529;BME280;35423;37.320;-121.762;2023-09-12T00:21:19;99749.96;;;46.91;5.76
49529;BME280;35423;37.320;-121.762;2023-09-12T00:24:04;99757.30;;;46.90;6.15
49529;BME280;35423;37.320;-121.762;2023-09-12T00:26:33;99754.49;;;46.53;6.49
49529;BME280;35423;37.320;-121.762;2023-09-12T00:28:58;99757.65;;;46.25;6.84
49529;BME280;35423;37.320;-121.762;2023-09-12T00:31:25;99760.48;;;46.04;7.06
49529;BME280;35423;37.320;-121.762;2023-09-12T00:34:09;99764.22;;;45.69;7.30
49529;BME280;35423;37.320;-121.762;2023-09-12T00:36:35;99768.77;;;45.45;7.69
49529;BME280;35423;37.320;-121.762;2023-09-12T00:39:02;99768.07;;;44.82;7.74
49529;BME280;35423;37.320;-121.762;2023-09-12T00:41:29;99768.93;;;44.67;8.00
49529;BME280;35423;37.320;-121.762;2023-09-12T00:43:57;99770.94;;;44.91;8.23
49529;BME280;35423;37.320;-121.762;2023-09-12T00:46:24;99769.83;;;44.68;8.36
49529;BME280;35423;37.320;-121.762;2023-09-12T00:48:53;99772.67;;;44.27;8.48
49529;BME280;35423;37.320;-121.762;2023-09-12T00:51:21;99768.62;;;44.10;8.75
49529;BME280;35423;37.320;-121.762;2023-09-12T00:53:54;99767.68;;;43.84;8.94
49529;BME280;35423;37.320;-121.762;2023-09-12T00:56:20;99768.64;;;43.96;9.17
49529;BME280;35423;37.320;-121.762;2023-09-12T00:58:45;99767.72;;;43.85;9.29
49529;BME280;35423;37.320;-121.762;2023-09-12T01:01:14;99771.58;;;43.49;9.53
49529;BME280;35423;37.320;-121.762;2023-09-12T01:03:40;99773.79;;;43.03;9.71
49529;BME280;35423;37.320;-121.762;2023-09-12T01:06:07;99774.68;;;42.96;9.93
49529;BME280;35423;37.320;-121.762;2023-09-12T01:08:34;99774.95;;;42.78;10.14
49529;BME280;35423;37.320;-121.762;2023-09-12T01:11:03;99774.06;;;42.54;10.29
49529;BME280;35423;37.320;-121.762;2023-09-12T01:13:42;99777.78;;;42.13;10.45
49529;BME280;35423;37.320;-121.762;2023-09-12T01:16:14;99778.29;;;42.30;10.67
49529;BME280;35423;37.320;-121.762;2023-09-12T01:18:40;99778.59;;;41.86;10.80
49529;BME280;35423;37.320;-121.762;2023-09-12T01:21:17;99777.67;;;41.96;11.04
49529;BME280;35423;37.320;-121.762;2023-09-12T01:23:45;99779.20;;;41.17;11.23
49529;BME280;35423;37.320;-121.762;2023-09-12T01:26:26;99779.64;;;41.47;11.39
49529;BME280;35423;37.320;-121.762;2023-09-12T01:28:38;99780.68;;;41.36;11.44
49529;BME280;35423;37.320;-121.762;2023-09-12T01:31:03;99773.41;;;41.08;11.57
49529;BME280;35423;37.320;-121.762;2023-09-12T01:34:12;99770.10;;;40.62;11.71
49529;BME280;35423;37.320;-121.762;2023-09-12T01:36:37;99774.24;;;40.73;11.89
49529;BME280;35423;37.320;-121.762;2023-09-12T01:39:13;99779.62;;;40.45;12.04
49529;BME280;35423;37.320;-121.762;2023-09-12T01:41:46;99779.87;;;40.30;12.28
49529;BME280;35423;37.320;-121.762;2023-09-12T01:44:18;99781.30;;;40.12;12.49
49529;BME280;35423;37.320;-121.762;2023-09-12T01:46:47;99781.87;;;39.12;12.66
49529;BME280;35423;37.320;-121.762;2023-09-12T01:49:14;99783.56;;;39.80;12.69
49529;BME280;35423;37.320;-121.762;2023-09-12T01:51:42;99782.40;;;39.35;12.78
49529;BME280;35423;37.320;-121.762;2023-09-12T01:54:07;99783.16;;;39.72;12.87
49529;BME280;35423;37.320;-121.762;2023-09-12T01:56:35;99784.50;;;39.64;13.02
49529;BME280;35423;37.320;-121.762;2023-09-12T01:59:02;99786.18;;;39.49;13.14
49529;BME280;35423;37.320;-121.762;2023-09-12T02:01:30;99789.96;;;38.60;13.30
49529;BME280;35423;37.320;-121.762;2023-09-12T02:04:01;99787.43;;;38.90;13.38
49529;BME280;35423;37.320;-121.762;2023-09-12T02:06:26;99790.16;;;38.53;13.56
49529;BME280;35423;37.320;-121.762;2023-09-12T02:09:02;99790.29;;;38.38;13.53
49529;BME280;35423;37.320;-121.762;2023-09-12T02:11:30;99793.50;;;38.15;13.69
49529;BME280;35423;37.320;-121.762;2023-09-12T02:13:54;99794.83;;;38.25;13.73
49529;BME280;35423;37.320;-121.762;2023-09-12T02:16:21;99797.88;;;38.15;13.89
49529;BME280;35423;37.320;-121.762;2023-09-12T02:18:53;99797.83;;;38.00;13.96
49529;BME280;35423;37.320;-121.762;2023-09-12T02:21:18;99798.07;;;37.66;14.12
49529;BME280;35423;37.320;-121.762;2023-09-12T02:23:52;99798.38;;;37.59;14.18
49529;BME280;35423;37.320;-121.762;2023-09-12T02:26:29;99800.97;;;37.35;14.34
49529;BME280;35423;37.320;-121.762;2023-09-12T02:28:59;99803.35;;;37.06;14.43
49529;BME280;35423;37.320;-121.762;2023-09-12T02:31:27;99804.70;;;36.97;14.63
49529;BME280;35423;37.320;-121.762;2023-09-12T02:33:49;99809.17;;;36.80;14.82
49529;BME280;35423;37.320;-121.762;2023-09-12T02:36:14;99814.94;;;36.72;15.07
49529;BME280;35423;37.320;-121.762;2023-09-12T02:38:57;99820.50;;;36.79;15.18
49529;BME280;35423;37.320;-121.762;2023-09-12T02:41:23;99823.28;;;36.10;15.26
49529;BME280;35423;37.320;-121.762;2023-09-12T02:43:48;99825.21;;;36.45;15.36
49529;BME280;35423;37.320;-121.762;2023-09-12T02:46:14;99827.36;;;36.28;15.48
49529;BME280;35423;37.320;-121.762;2023-09-12T02:48:46;99833.25;;;35.90;15.62
49529;BME280;35423;37.320;-121.762;2023-09-12T02:51:16;99838.47;;;36.16;15.80
49529;BME280;35423;37.320;-121.762;2023-09-12T02:53:53;99840.52;;;36.01;15.91
49529;BME280;35423;37.320;-121.762;2023-09-12T02:56:22;99837.40;;;35.68;16.03
49529;BME280;35423;37.320;-121.762;2023-09-12T02:58:50;99838.31;;;35.72;16.07
49529;BME280;35423;37.320;-121.762;2023-09-12T03:01:24;99841.92;;;35.73;16.13
49529;BME280;35423;37.320;-121.762;2023-09-12T03:04:04;99845.98;;;35.85;16.21
49529;BME280;35423;37.320;-121.762;2023-09-12T03:06:33;99847.48;;;35.50;16.43
49529;BME280;35423;37.320;-121.762;2023-09-12T03:09:02;99848.29;;;35.10;16.54
49529;BME280;35423;37.320;-121.762;2023-09-12T03:11:29;99854.68;;;34.87;16.72
49529;BME280;35423;37.320;-121.762;2023-09-12T03:14:05;99859.53;;;35.30;16.76
49529;BME280;35423;37.320;-121.762;2023-09-12T03:16:33;99862.77;;;35.13;16.86
49529;BME280;35423;37.320;-121.762;2023-09-12T03:18:57;99864.49;;;35.05;16.96
49529;BME280;35423;37.320;-121.762;2023-09-12T03:21:24;99866.96;;;34.63;17.08
49529;BME280;35423;37.320;-121.762;2023-09-12T03:23:52;99865.24;;;34.83;17.16
49529;BME280;35423;37.320;-121.762;2023-09-12T03:26:19;99867.77;;;34.86;17.31
49529;BME280;35423;37.320;-121.762;2023-09-12T03:28:55;99869.44;;;34.99;17.39
49529;BME280;35423;37.320;-121.762;2023-09-12T03:31:20;99872.62;;;34.86;17.50
49529;BME280;35423;37.320;-121.762;2023-09-12T03:33:54;99873.80;;;34.39;17.52
49529;BME280;35423;37.320;-121.762;2023-09-12T03:36:23;99874.72;;;34.99;17.64
49529;BME280;35423;37.320;-121.762;2023-09-12T03:38:48;99875.52;;;34.56;17.79
49529;BME280;35423;37.320;-121.762;2023-09-12T03:41:18;99876.98;;;34.32;18.01
49529;BME280;35423;37.320;-121.762;2023-09-12T03:43:44;99876.65;;;34.10;18.01
49529;BME280;35423;37.320;-121.762;2023-09-12T03:46:10;99875.73;;;33.99;18.10
49529;BME280;35423;37.320;-121.762;2023-09-12T03:49:00;99879.28;;;34.09;18.22
49529;BME280;35423;37.320;-121.762;2023-09-12T03:51:27;99880.45;;;34.18;18.35
49529;BME280;35423;37.320;-121.762;2023-09-12T03:53:52;99879.93;;;33.81;18.51
49529;BME280;35423;37.320;-121.762;2023-09-12T03:56:17;99881.70;;;33.75;18.48
49529;BME280;35423;37.320;-121.762;2023-09-12T03:58:44;99881.51;;;33.94;18.55
49529;BME280;35423;37.320;-121.762;2023-09-12T04:01:14;99885.38;;;34.06;18.62
49529;BME280;35423;37.320;-121.762;2023-09-12T04:03:48;99886.78;;;33.49;18.72
49529;BME280;35423;37.320;-121.762;2023-09-12T04:06:15;99886.12;;;33.89;18.78
49529;BME280;35423;37.320;-121.762;2023-09-12T04:08:57;99889.33;;;33.32;18.74
49529;BME280;35423;37.320;-121.762;2023-09-12T04:11:24;99889.11;;;33.63;18.82
49529;BME280;35423;37.320;-121.762;2023-09-12T04:13:59;99887.98;;;33.41;18.70
49529;BME280;35423;37.320;-121.762;2023-09-12T04:16:32;99890.35;;;33.24;18.80
49529;BME280;35423;37.320;-121.762;2023-09-12T04:18:55;99892.55;;;33.17;18.89
49529;BME280;35423;37.320;-121.762;2023-09-12T04:21:38;99894.87;;;33.12;19.08
49529;BME280;35423;37.320;-121.762;2023-09-12T04:23:57;99898.19;;;32.95;19.11
49529;BME280;35423;37.320;-121.762;2023-09-12T04:26:24;99897.33;;;32.75;19.18
49529;BME280;35423;37.320;-121.762;2023-09-12T04:28:51;99895.89;;;32.75;19.18
49529;BME280;35423;37.320;-121.762;2023-09-12T04:31:21;99898.01;;;32.82;19.22
49529;BME280;35423;37.320;-121.762;2023-09-12T04:33:57;99899.20;;;32.59;19.19
49529;BME280;35423;37.320;-121.762;2023-09-12T04:36:26;99905.21;;;32.50;19.25
49529;BME280;35423;37.320;-121.762;2023-09-12T04:38:50;99903.28;;;32.39;19.30
49529;BME280;35423;37.320;-121.762;2023-09-12T04:41:18;99903.13;;;32.37;19.40
49529;BME280;35423;37.320;-121.762;2023-09-12T04:43:48;99900.84;;;32.21;19.41
49529;BME280;35423;37.320;-121.762;2023-09-12T04:46:28;99899.24;;;31.81;19.48
49529;BME280;35423;37.320;-121.762;2023-09-12T04:48:55;99897.41;;;31.76;19.52
49529;BME280;35423;37.320;-121.762;2023-09-12T04:51:19;99897.24;;;31.89;19.59
49529;BME280;35423;37.320;-121.762;2023-09-12T04:53:53;99896.88;;;31.69;19.62
49529;BME280;35423;37.320;-121.762;2023-09-12T04:56:20;99896.40;;;32.07;19.65
49529;BME280;35423;37.320;-121.762;2023-09-12T04:58:48;99891.31;;;31.49;19.71
49529;BME280;35423;37.320;-121.762;2023-09-12T05:01:15;99891.08;;;31.86;19.82
49529;BME280;35423;37.320;-121.762;2023-09-12T05:03:45;99888.74;;;31.36;20.09
49529;BME280;35423;37.320;-121.762;2023-09-12T05:06:11;99887.12;;;31.68;20.16
49529;BME280;35423;37.320;-121.762;2023-09-12T05:08:47;99884.57;;;31.43;20.15
49529;BME280;35423;37.320;-121.762;2023-09-12T05:11:13;99884.74;;;31.28;20.28
49529;BME280;35423;37.320;-121.762;2023-09-12T05:13:40;99883.07;;;31.24;20.38
49529;BME280;35423;37.320;-121.762;2023-09-12T05:16:08;99880.94;;;31.13;20.44
49529;BME280;35423;37.320;-121.762;2023-09-12T05:18:49;99876.92;;;31.30;20.47
49529;BME280;35423;37.320;-121.762;2023-09-12T05:21:18;99871.71;;;31.16;20.59
49529;BME280;35423;37.320;-121.762;2023-09-12T05:23:56;99868.75;;;31.44;20.55
49529;BME280;35423;37.320;-121.762;2023-09-12T05:26:24;99860.59;;;30.51;20.20
49529;BME280;35423;37.320;-121.762;2023-09-12T05:28:54;99854.53;;;31.59;20.10
49529;BME280;35423;37.320;-121.762;2023-09-12T05:31:23;99855.00;;;31.38;20.39
49529;BME280;35423;37.320;-121.762;2023-09-12T05:33:57;99850.34;;;31.46;20.54
49529;BME280;35423;37.320;-121.762;2023-09-12T05:36:29;99849.30;;;30.93;20.71
49529;BME280;35423;37.320;-121.762;2023-09-12T05:38:53;99848.94;;;30.80;20.85
49529;BME280;35423;37.320;-121.762;2023-09-12T05:41:29;99850.52;;;30.91;20.96
49529;BME280;35423;37.320;-121.762;2023-09-12T05:43:55;99849.92;;;30.78;21.00
49529;BME280;35423;37.320;-121.762;2023-09-12T05:46:26;99854.19;;;30.65;21.16
49529;BME280;35423;37.320;-121.762;2023-09-12T05:48:58;99853.56;;;30.07;21.20
49529;BME280;35423;37.320;-121.762;2023-09-12T05:51:22;99857.49;;;30.46;21.24
49529;BME280;35423;37.320;-121.762;2023-09-12T05:53:58;99857.61;;;30.40;21.25
49529;BME280;35423;37.320;-121.762;2023-09-12T05:56:28;99853.33;;;29.95;21.34
49529;BME280;35423;37.320;-121.762;2023-09-12T05:58:57;99855.61;;;30.38;21.37
49529;BME280;35423;37.320;-121.762;2023-09-12T06:01:22;99853.35;;;30.46;21.54
49529;BME280;35423;37.320;-121.762;2023-09-12T06:03:53;99852.17;;;30.01;21.58
49529;BME280;35423;37.320;-121.762;2023-09-12T06:06:27;99854.12;;;30.31;21.74
49529;BME280;35423;37.320;-121.762;2023-09-12T06:09:01;99852.65;;;30.20;21.87
49529;BME280;35423;37.320;-121.762;2023-09-12T06:11:24;99855.66;;;30.03;21.98
49529;BME280;35423;37.320;-121.762;2023-09-12T06:13:59;99853.21;;;29.97;22.08
49529;BME280;35423;37.320;-121.762;2023-09-12T06:16:26;99852.71;;;29.31;22.24
49529;BME280;35423;37.320;-121.762;2023-09-12T06:18:53;99854.04;;;29.70;22.29
49529;BME280;35423;37.320;-121.762;2023-09-12T06:21:19;99854.32;;;29.64;22.35
49529;BME280;35423;37.320;-121.762;2023-09-12T06:24:08;99854.38;;;29.84;22.39
49529;BME280;35423;37.320;-121.762;2023-09-12T06:26:26;99857.53;;;29.00;22.49
49529;BME280;35423;37.320;-121.762;2023-09-12T06:29:03;99856.63;;;29.68;22.57
49529;BME280;35423;37.320;-121.762;2023-09-12T06:31:27;99855.15;;;29.26;22.70
49529;BME280;35423;37.320;-121.762;2023-09-12T06:33:56;99854.35;;;29.62;22.61
49529;BME280;35423;37.320;-121.762;2023-09-12T06:36:31;99854.70;;;29.28;22.68
49529;BME280;35423;37.320;-121.762;2023-09-12T06:38:55;99856.69;;;29.48;22.76
49529;BME280;35423;37.320;-121.762;2023-09-12T06:41:25;99856.69;;;28.60;22.89
49529;BME280;35423;37.320;-121.762;2023-09-12T06:43:52;99859.02;;;28.99;22.99
49529;BME280;35423;37.320;-121.762;2023-09-12T06:46:18;99859.13;;;29.19;23.02
49529;BME280;35423;37.320;-121.762;2023-09-12T06:48:44;99859.41;;;29.14;23.01
49529;BME280;35423;37.320;-121.762;2023-09-12T06:51:12;99862.69;;;28.99;23.12
49529;BME280;35423;37.320;-121.762;2023-09-12T06:53:48;99863.59;;;29.14;23.17
49529;BME280;35423;37.320;-121.762;2023-09-12T06:56:14;99862.62;;;29.04;23.27
49529;BME280;35423;37.320;-121.762;2023-09-12T06:58:50;99866.86;;;28.85;23.20
49529;BME280;35423;37.320;-121.762;2023-09-12T07:01:15;99868.50;;;28.76;23.28
49529;BME280;35423;37.320;-121.762;2023-09-12T07:03:41;99865.45;;;28.81;23.29
49529;BME280;35423;37.320;-121.762;2023-09-12T07:06:07;99866.53;;;28.87;23.39
49529;BME280;35423;37.320;-121.762;2023-09-12T07:08:33;99868.06;;;28.27;23.56
49529;BME280;35423;37.320;-121.762;2023-09-12T07:11:01;99867.55;;;28.65;23.62
49529;BME280;35423;37.320;-121.762;2023-09-12T07:13:27;99862.63;;;27.82;23.69
49529;BME280;35423;37.320;-121.762;2023-09-12T07:15:56;99860.66;;;28.41;23.77
49529;BME280;35423;37.320;-121.762;2023-09-12T07:18:28;99858.32;;;28.41;23.74
49529;BME280;35423;37.320;-121.762;2023-09-12T07:21:01;99856.08;;;28.32;23.78
49529;BME280;35423;37.320;-121.762;2023-09-12T07:23:23;99853.94;;;28.06;23.77
49529;BME280;35423;37.320;-121.762;2023-09-12T07:25:49;99855.40;;;28.15;23.88
49529;BME280;35423;37.320;-121.762;2023-09-12T07:28:14;99854.44;;;28.58;23.95
49529;BME280;35423;37.320;-121.762;2023-09-12T07:30:49;99854.33;;;28.18;24.05
49529;BME280;35423;37.320;-121.762;2023-09-12T07:33:07;99852.47;;;27.80;24.01
49529;BME280;35423;37.320;-121.762;2023-09-12T07:35:34;99854.46;;;27.99;24.03
49529;BME280;35423;37.320;-121.762;2023-09-12T07:38:03;99853.02;;;28.08;24.16
49529;BME280;35423;37.320;-121.762;2023-09-12T07:40:28;99854.03;;;27.51;24.26
49529;BME280;35423;37.320;-121.762;2023-09-12T07:42:54;99857.83;;;27.88;24.29
49529;BME280;35423;37.320;-121.762;2023-09-12T07:45:27;99862.96;;;27.56;24.39
49529;BME280;35423;37.320;-121.762;2023-09-12T07:48:03;99865.79;;;28.02;24.46
49529;BME280;35423;37.320;-121.762;2023-09-12T07:50:29;99864.96;;;27.45;24.52
49529;BME280;35423;37.320;-121.762;2023-09-12T07:52:54;99865.67;;;27.58;24.60
49529;BME280;35423;37.320;-121.762;2023-09-12T07:55:19;99863.77;;;27.75;24.66
49529;BME280;35423;37.320;-121.762;2023-09-12T07:57:50;99866.97;;;27.68;24.70
49529;BME280;35423;37.320;-121.762;2023-09-12T08:00:19;99863.62;;;27.60;24.82
49529;BME280;35423;37.320;-121.762;2023-09-12T08:02:46;99863.11;;;27.02;24.95
49529;BME280;35423;37.320;-121.762;2023-09-12T08:05:14;99860.51;;;27.48;24.96
49529;BME280;35423;37.320;-121.762;2023-09-12T08:07:40;99862.65;;;27.39;25.02
49529;BME280;35423;37.320;-121.762;2023-09-12T08:10:08;99862.70;;;27.06;25.12
49529;BME280;35423;37.320;-121.762;2023-09-12T08:12:36;99861.47;;;27.27;25.18
49529;BME280;35423;37.320;-121.762;2023-09-12T08:15:01;99860.19;;;27.20;25.22
49529;BME280;35423;37.320;-121.762;2023-09-12T08:17:27;99857.61;;;26.64;25.34
49529;BME280;35423;37.320;-121.762;2023-09-12T08:19:58;99857.75;;;27.10;25.33
49529;BME280;35423;37.320;-121.762;2023-09-12T08:22:23;99853.13;;;26.54;25.44
49529;BME280;35423;37.320;-121.762;2023-09-12T08:24:59;99850.03;;;27.10;25.35
49529;BME280;35423;37.320;-121.762;2023-09-12T08:27:20;99849.87;;;26.96;25.50
49529;BME280;35423;37.320;-121.762;2023-09-12T08:29:44;99847.34;;;26.91;25.48
49529;BME280;35423;37.320;-121.762;2023-09-12T08:32:11;99846.80;;;26.57;25.56
49529;BME280;35423;37.320;-121.762;2023-09-12T08:34:36;99843.57;;;26.86;25.54
49529;BME280;35423;37.320;-121.762;2023-09-12T08:37:06;99843.26;;;26.77;25.65
49529;BME280;35423;37.320;-121.762;2023-09-12T08:42:04;99836.32;;;26.15;25.73
49529;BME280;35423;37.320;-121.762;2023-09-12T08:44:30;99833.50;;;26.86;25.77
49529;BME280;35423;37.320;-121.762;2023-09-12T08:46:56;99833.26;;;26.27;25.82
49529;BME280;35423;37.320;-121.762;2023-09-12T08:49:24;99834.72;;;26.52;25.83
49529;BME280;35423;37.320;-121.762;2023-09-12T08:51:50;99834.13;;;25.92;25.98
49529;BME280;35423;37.320;-121.762;2023-09-12T08:54:17;99833.01;;;26.60;26.04
49529;BME280;35423;37.320;-121.762;2023-09-12T08:56:47;99835.93;;;25.82;26.10
49529;BME280;35423;37.320;-121.762;2023-09-12T08:59:14;99840.03;;;26.77;26.11
49529;BME280;35423;37.320;-121.762;2023-09-12T09:01:44;99843.62;;;26.40;26.20
49529;BME280;35423;37.320;-121.762;2023-09-12T09:04:15;99843.11;;;26.35;26.30
49529;BME280;35423;37.320;-121.762;2023-09-12T09:06:45;99842.87;;;26.20;26.42
49529;BME280;35423;37.320;-121.762;2023-09-12T09:09:11;99841.33;;;26.42;26.41
49529;BME280;35423;37.320;-121.762;2023-09-12T09:11:42;99840.07;;;26.53;26.45
49529;BME280;35423;37.320;-121.762;2023-09-12T09:14:07;99837.08;;;26.29;26.50
49529;BME280;35423;37.320;-121.762;2023-09-12T09:16:36;99839.43;;;25.97;26.52
49529;BME280;35423;37.320;-121.762;2023-09-12T09:19:02;99835.26;;;26.23;26.57
49529;BME280;35423;37.320;-121.762;2023-09-12T09:21:29;99834.20;;;26.35;26.72
49529;BME280;35423;37.320;-121.762;2023-09-12T09:23:57;99833.87;;;26.01;26.81
49529;BME280;35423;37.320;-121.762;2023-09-12T09:26:25;99834.64;;;26.13;26.89
49529;BME280;35423;37.320;-121.762;2023-09-12T09:31:18;99834.76;;;26.13;27.02
49529;BME280;35423;37.320;-121.762;2023-09-12T09:33:47;99836.77;;;25.65;26.91
49529;BME280;35423;37.320;-121.762;2023-09-12T09:36:11;99836.60;;;26.00;27.01
49529;BME280;35423;37.320;-121.762;2023-09-12T09:38:38;99836.18;;;25.52;27.07
49529;BME280;35423;37.320;-121.762;2023-09-12T09:41:05;99833.77;;;25.88;27.11
49529;BME280;35423;37.320;-121.762;2023-09-12T09:43:47;99831.42;;;25.81;27.15
49529;BME280;35423;37.320;-121.762;2023-09-12T09:46:18;99827.03;;;25.34;27.18
49529;BME280;35423;37.320;-121.762;2023-09-12T09:48:49;99825.67;;;25.53;27.21
49529;BME280;35423;37.320;-121.762;2023-09-12T09:51:17;99824.34;;;25.67;27.27
49529;BME280;35423;37.320;-121.762;2023-09-12T09:53:46;99824.47;;;25.65;27.31
49529;BME280;35423;37.320;-121.762;2023-09-12T09:56:14;99824.54;;;25.56;27.38
49529;BME280;35423;37.320;-121.762;2023-09-12T09:58:37;99822.01;;;25.27;27.45
49529;BME280;35423;37.320;-121.762;2023-09-12T10:01:05;99820.18;;;25.22;27.48
49529;BME280;35423;37.320;-121.762;2023-09-12T10:03:30;99821.21;;;24.79;27.44
49529;BME280;35423;37.320;-121.762;2023-09-12T10:06:06;99818.60;;;25.77;27.42
49529;BME280;35423;37.320;-121.762;2023-09-12T10:08:37;99817.27;;;24.73;27.45
49529;BME280;35423;37.320;-121.762;2023-09-12T10:11:03;99814.36;;;25.37;27.51
49529;BME280;35423;37.320;-121.762;2023-09-12T10:13:31;99812.35;;;24.88;27.63
49529;BME280;35423;37.320;-121.762;2023-09-12T10:15:55;99815.95;;;25.25;27.76
49529;BME280;35423;37.320;-121.762;2023-09-12T10:18:26;99815.43;;;25.21;27.83
49529;BME280;35423;37.320;-121.762;2023-09-12T10:20:53;99817.65;;;25.38;27.94
49529;BME280;35423;37.320;-121.762;2023-09-12T10:23:19;99817.74;;;25.08;27.96
49529;BME280;35423;37.320;-121.762;2023-09-12T10:25:42;99817.54;;;25.31;27.90
49529;BME280;35423;37.320;-121.762;2023-09-12T10:28:09;99816.21;;;25.00;27.92
49529;BME280;35423;37.320;-121.762;2023-09-12T10:30:34;99816.47;;;24.92;27.98
49529;BME280;35423;37.320;-121.762;2023-09-12T10:33:02;99817.62;;;24.89;28.00
49529;BME280;35423;37.320;-121.762;2023-09-12T10:35:49;99818.33;;;24.77;28.12
49529;BME280;35423;37.320;-121.762;2023-09-12T10:38:03;99821.05;;;24.96;28.18
49529;BME280;35423;37.320;-121.762;2023-09-12T10:40:31;99820.84;;;24.64;28.26
49529;BME280;35423;37.320;-121.762;2023-09-12T10:42:55;99822.50;;;25.05;28.39
49529;BME280;35423;37.320;-121.762;2023-09-12T10:45:26;99819.84;;;24.31;28.58
49529;BME280;35423;37.320;-121.762;2023-09-12T10:47:52;99821.29;;;24.43;28.53
49529;BME280;35423;37.320;-121.762;2023-09-12T10:50:24;99821.93;;;24.87;28.57
49529;BME280;35423;37.320;-121.762;2023-09-12T10:52:42;99819.94;;;24.33;28.60
49529;BME280;35423;37.320;-121.762;2023-09-12T10:55:16;99819.25;;;24.56;28.69
49529;BME280;35423;37.320;-121.762;2023-09-12T11:00:09;99821.56;;;24.49;28.61
49529;BME280;35423;37.320;-121.762;2023-09-12T11:02:33;99819.96;;;24.14;28.65
49529;BME280;35423;37.320;-121.762;2023-09-12T11:04:57;99820.39;;;24.56;28.64
49529;BME280;35423;37.320;-121.762;2023-09-12T11:07:43;99820.04;;;23.77;28.68
49529;BME280;35423;37.320;-121.762;2023-09-12T11:17:27;99808.31;;;24.15;28.77
49529;BME280;35423;37.320;-121.762;2023-09-12T11:19:56;99805.84;;;24.38;28.70
49529;BME280;35423;37.320;-121.762;2023-09-12T11:22:27;99806.40;;;23.77;28.76
49529;BME280;35423;37.320;-121.762;2023-09-12T11:24:52;99803.41;;;24.01;28.73
49529;BME280;35423;37.320;-121.762;2023-09-12T11:27:16;99800.15;;;24.16;28.80
49529;BME280;35423;37.320;-121.762;2023-09-12T11:29:43;99795.90;;;24.11;28.80
49529;BME280;35423;37.320;-121.762;2023-09-12T11:32:30;99793.16;;;24.00;28.92
49529;BME280;35423;37.320;-121.762;2023-09-12T11:34:45;99790.13;;;23.94;28.95
49529;BME280;35423;37.320;-121.762;2023-09-12T11:37:09;99790.72;;;23.90;28.96
49529;BME280;35423;37.320;-121.762;2023-09-12T11:39:37;99788.86;;;23.93;28.90
49529;BME280;35423;37.320;-121.762;2023-09-12T11:42:03;99788.36;;;23.81;29.04
49529;BME280;35423;37.320;-121.762;2023-09-12T11:44:31;99790.41;;;23.55;29.04
49529;BME280;35423;37.320;-121.762;2023-09-12T11:46:53;99793.68;;;23.74;29.11
49529;BME280;35423;37.320;-121.762;2023-09-12T11:49:20;99797.93;;;23.68;29.10
49529;BME280;35423;37.320;-121.762;2023-09-12T11:51:52;99804.07;;;23.12;29.17
49529;BME280;35423;37.320;-121.762;2023-09-12T11:54:25;99806.27;;;23.59;29.17
49529;BME280;35423;37.320;-121.762;2023-09-12T11:56:47;99807.98;;;23.60;29.15
49529;BME280;35423;37.320;-121.762;2023-09-12T11:59:13;99806.20;;;23.60;28.91
49529;BME280;35423;37.320;-121.762;2023-09-12T12:01:39;99805.92;;;23.86;28.82
49529;BME280;35423;37.320;-121.762;2023-09-12T12:04:04;99803.22;;;23.83;28.82
49529;BME280;35423;37.320;-121.762;2023-09-12T12:06:31;99803.07;;;23.65;28.93
49529;BME280;35423;37.320;-121.762;2023-09-12T12:08:59;99805.36;;;23.53;29.08
49529;BME280;35423;37.320;-121.762;2023-09-12T12:11:28;99808.35;;;23.63;29.26
49529;BME280;35423;37.320;-121.762;2023-09-12T12:13:52;99811.67;;;23.56;29.40
49529;BME280;35423;37.320;-121.762;2023-09-12T12:16:19;99812.79;;;23.69;29.43
49529;BME280;35423;37.320;-121.762;2023-09-12T12:18:44;99812.68;;;23.45;29.44
49529;BME280;35423;37.320;-121.762;2023-09-12T12:21:21;99813.20;;;23.61;29.48
49529;BME280;35423;37.320;-121.762;2023-09-12T12:26:14;99815.33;;;23.49;29.59
49529;BME280;35423;37.320;-121.762;2023-09-12T12:28:40;99816.30;;;23.40;29.69
49529;BME280;35423;37.320;-121.762;2023-09-12T12:31:08;99818.32;;;23.36;29.74
49529;BME280;35423;37.320;-121.762;2023-09-12T12:33:37;99819.83;;;22.93;29.68
49529;BME280;35423;37.320;-121.762;2023-09-12T12:36:05;99822.67;;;23.19;29.68
49529;BME280;35423;37.320;-121.762;2023-09-12T12:38:42;99825.86;;;23.29;29.58
49529;BME280;35423;37.320;-121.762;2023-09-12T12:41:09;99827.25;;;23.45;29.66
49529;BME280;35423;37.320;-121.762;2023-09-12T12:43:53;99831.22;;;23.38;29.54
49529;BME280;35423;37.320;-121.762;2023-09-12T12:46:16;99830.90;;;23.08;29.60
49529;BME280;35423;37.320;-121.762;2023-09-12T12:48:48;99832.24;;;23.15;29.56
49529;BME280;35423;37.320;-121.762;2023-09-12T12:51:20;99833.99;;;23.42;29.63
49529;BME280;35423;37.320;-121.762;2023-09-12T12:53:45;99834.02;;;23.47;29.64
49529;BME280;35423;37.320;-121.762;2023-09-12T12:56:22;99833.26;;;23.49;29.60